createdAt,value
2023-02-19T00:00:30.289Z,2.90
2023-02-19T00:05:31.690Z,2.30
2023-02-19T00:10:32.959Z,2.50
2023-02-19T00:15:34.269Z,2.57
2023-02-19T00:20:35.639Z,2.15
2023-02-19T00:25:37.892Z,2.30
2023-02-19T00:30:39.156Z,2.30
2023-02-19T00:35:40.465Z,2.08
2023-02-19T00:40:41.782Z,2.27
2023-02-19T00:45:43.026Z,2.60
2023-02-19T00:50:44.438Z,2.05
2023-02-19T00:55:45.736Z,2.40
2023-02-19T01:00:47.049Z,2.10
2023-02-19T01:05:49.143Z,2.20
2023-02-19T01:10:50.439Z,2.08
2023-02-19T01:15:51.887Z,2.15
2023-02-19T01:20:53.189Z,2.20
2023-02-19T01:25:54.443Z,2.35
2023-02-19T01:30:55.704Z,2.10
2023-02-19T01:35:57.175Z,2.40
2023-02-19T01:40:59.847Z,2.40
2023-02-19T01:46:01.349Z,2.30
2023-02-19T01:51:05.673Z,2.20
2023-02-19T01:56:08.185Z,2.30
2023-02-19T02:01:09.934Z,2.22
2023-02-19T02:06:11.326Z,2.20
2023-02-19T02:11:12.934Z,1.90
2023-02-19T02:16:22.118Z,2.00
2023-02-19T02:21:23.414Z,2.37
2023-02-19T02:26:35.489Z,1.98
2023-02-19T02:31:42.174Z,2.15
2023-02-19T02:36:45.610Z,2.30
2023-02-19T02:42:13.563Z,2.05
2023-02-19T02:47:37.625Z,2.47
2023-02-19T02:52:59.951Z,2.10
2023-02-19T02:58:01.418Z,1.85
2023-02-19T03:03:02.992Z,1.80
2023-02-19T03:08:09.776Z,1.83
2023-02-19T03:13:32.570Z,1.77
2023-02-19T03:18:53.338Z,1.60
2023-02-19T03:24:14.999Z,1.48
2023-02-19T03:29:25.944Z,1.60
2023-02-19T03:34:38.151Z,1.30
2023-02-19T03:39:44.198Z,1.20
2023-02-19T03:44:50.982Z,1.02
2023-02-19T03:49:58.786Z,1.10
2023-02-19T03:55:08.098Z,1.10
2023-02-19T04:00:15.839Z,1.10
2023-02-19T04:05:19.232Z,1.03
2023-02-19T04:10:20.825Z,1.17
2023-02-19T04:15:24.635Z,1.20
2023-02-19T04:20:28.407Z,0.97
2023-02-19T04:25:30.331Z,0.88
2023-02-19T04:30:31.707Z,0.70
2023-02-19T04:35:33.040Z,0.75
2023-02-19T04:40:34.276Z,0.80
2023-02-19T04:45:37.270Z,0.60
2023-02-19T04:50:39.684Z,0.70
2023-02-19T04:55:40.929Z,0.60
2023-02-19T05:00:42.171Z,0.68
2023-02-19T05:05:43.437Z,0.50
2023-02-19T05:10:44.746Z,0.40
2023-02-19T05:15:54.186Z,0.60
2023-02-19T05:20:57.030Z,0.53
2023-02-19T05:25:58.345Z,0.70
2023-02-19T05:31:03.949Z,0.70
2023-02-19T05:36:06.827Z,0.70
2023-02-19T05:41:15.499Z,1.00
2023-02-19T05:46:20.971Z,1.13
2023-02-19T05:51:23.296Z,1.00
2023-02-19T05:56:27.423Z,1.00
2023-02-19T06:01:29.251Z,1.13
2023-02-19T06:06:30.586Z,1.00
2023-02-19T06:11:32.004Z,0.80
2023-02-19T06:16:34.348Z,0.88
2023-02-19T06:21:35.820Z,0.90
2023-02-19T06:26:38.095Z,1.00
2023-02-19T06:31:39.506Z,0.60
2023-02-19T06:36:40.811Z,1.00
2023-02-19T06:41:42.190Z,1.20
2023-02-19T06:46:43.604Z,1.20
2023-02-19T06:51:44.920Z,1.10
2023-02-19T06:56:47.190Z,1.00
2023-02-19T07:01:48.507Z,1.00
2023-02-19T07:06:49.784Z,0.90
2023-02-19T07:11:51.066Z,0.85
2023-02-19T07:16:52.299Z,1.00
2023-02-19T07:21:53.673Z,1.08
2023-02-19T07:26:54.933Z,0.93
2023-02-19T07:31:56.211Z,1.10
2023-02-19T07:36:57.514Z,1.13
2023-02-19T07:41:58.843Z,1.20
2023-02-19T07:47:00.100Z,1.10
2023-02-19T07:52:01.498Z,1.00
2023-02-19T07:57:02.769Z,1.08
2023-02-19T08:02:22.585Z,1.20
2023-02-19T08:07:23.874Z,1.30
2023-02-19T08:12:43.672Z,1.00
2023-02-19T08:17:44.921Z,1.10
2023-02-19T08:22:46.170Z,1.15
2023-02-19T08:27:47.449Z,1.10
2023-02-19T08:32:48.775Z,1.40
2023-02-19T08:37:50.068Z,1.40
2023-02-19T08:42:51.622Z,1.37
2023-02-19T08:47:52.843Z,1.30
2023-02-19T08:52:54.321Z,1.65
2023-02-19T08:57:55.860Z,1.70
2023-02-19T09:02:57.709Z,1.40
2023-02-19T09:07:59.005Z,1.40
2023-02-19T09:13:00.744Z,1.48
2023-02-19T09:18:02.033Z,1.42
2023-02-19T09:23:03.290Z,1.50
2023-02-19T09:28:04.606Z,1.50
2023-02-19T09:33:06.934Z,1.70
2023-02-19T09:38:10.429Z,1.35
2023-02-19T09:43:21.836Z,1.40
2023-02-19T09:48:23.176Z,1.40
2023-02-19T09:53:26.379Z,1.45
2023-02-19T09:58:32.050Z,1.40
2023-02-19T10:03:35.386Z,1.92
2023-02-19T10:08:37.882Z,1.50
2023-02-19T10:13:43.998Z,1.37
2023-02-19T10:18:45.792Z,1.52
2023-02-19T10:23:48.530Z,1.70
2023-02-19T10:28:49.831Z,1.92
2023-02-19T10:33:51.306Z,1.92
2023-02-19T10:38:52.772Z,1.70
2023-02-19T10:44:06.898Z,1.58
2023-02-19T10:49:21.165Z,1.83
2023-02-19T10:54:28.414Z,1.65
2023-02-19T10:59:29.765Z,1.80
2023-02-19T11:04:35.000Z,1.67
2023-02-19T11:09:41.217Z,3.00
2023-02-19T11:14:43.615Z,2.07
2023-02-19T11:19:48.119Z,2.00
2023-02-19T11:24:52.570Z,2.30
2023-02-19T11:29:56.619Z,1.60
2023-02-19T11:35:14.326Z,1.67
2023-02-19T11:40:15.721Z,1.80
2023-02-19T11:45:28.353Z,1.50
2023-02-19T11:50:36.518Z,2.20
2023-02-19T11:55:47.197Z,2.70
2023-02-19T12:00:58.491Z,1.60
2023-02-19T12:06:05.986Z,1.80
2023-02-19T12:11:19.706Z,1.73
2023-02-19T12:16:30.371Z,1.80
2023-02-19T12:21:47.142Z,1.90
2023-02-19T12:27:07.205Z,1.80
2023-02-19T12:32:27.373Z,1.80
2023-02-19T12:37:39.481Z,2.30
2023-02-19T12:42:50.786Z,1.50
2023-02-19T12:47:59.620Z,1.60
2023-02-19T12:53:05.326Z,1.58
2023-02-19T12:58:10.377Z,1.70
2023-02-19T13:03:20.944Z,1.60
2023-02-19T13:08:48.801Z,1.80
2023-02-19T13:14:05.923Z,2.00
2023-02-19T13:19:07.241Z,1.50
2023-02-19T13:24:11.444Z,1.50
2023-02-19T13:29:24.990Z,1.50
2023-02-19T13:34:45.080Z,1.90
2023-02-19T13:39:50.808Z,1.70
2023-02-19T13:44:57.723Z,1.90
2023-02-19T13:50:05.236Z,1.60
2023-02-19T13:55:25.398Z,1.50
2023-02-19T14:00:49.323Z,1.60
2023-02-19T14:06:17.486Z,1.43
2023-02-19T14:11:38.800Z,2.20
2023-02-19T14:16:40.137Z,1.73
2023-02-19T14:21:43.815Z,1.52
2023-02-19T14:26:45.270Z,1.90
2023-02-19T14:31:49.479Z,1.97
2023-02-19T14:36:56.472Z,1.80
2023-02-19T14:41:59.084Z,3.00
2023-02-19T14:47:05.474Z,2.10
2023-02-19T14:52:11.286Z,2.47
2023-02-19T14:57:17.073Z,1.53
2023-02-19T15:02:20.741Z,1.40
2023-02-19T15:07:29.226Z,1.30
2023-02-19T15:12:32.901Z,1.60
2023-02-19T15:17:36.283Z,1.80
2023-02-19T15:22:39.810Z,1.93
2023-02-19T15:27:41.141Z,1.73
2023-02-19T15:32:51.225Z,2.50
2023-02-19T15:37:53.370Z,2.58
2023-02-19T15:42:54.680Z,2.15
2023-02-19T15:47:55.890Z,2.47
2023-02-19T15:53:12.110Z,2.53
2023-02-19T15:58:30.256Z,2.80
2023-02-19T16:03:32.200Z,2.70
2023-02-19T16:08:34.784Z,2.13
2023-02-19T16:13:36.073Z,2.40
2023-02-19T16:18:37.381Z,2.60
2023-02-19T16:23:41.979Z,2.30
2023-02-19T16:28:43.734Z,1.95
2023-02-19T16:33:49.290Z,2.33
2023-02-19T16:39:09.073Z,2.07
2023-02-19T16:44:25.746Z,2.63
2023-02-19T16:49:27.018Z,2.40
2023-02-19T16:54:28.381Z,2.45
2023-02-19T16:59:31.755Z,2.78
2023-02-19T17:04:34.180Z,2.30
2023-02-19T17:09:35.520Z,2.40
2023-02-19T17:14:36.869Z,2.00
2023-02-19T17:19:39.311Z,1.98
2023-02-19T17:24:40.613Z,2.55
2023-02-19T17:29:41.911Z,2.17
2023-02-19T17:34:43.214Z,2.55
2023-02-19T17:39:44.567Z,2.03
2023-02-19T17:44:47.306Z,2.40
2023-02-19T17:49:48.585Z,2.60
2023-02-19T17:54:49.877Z,2.50
2023-02-19T17:59:51.266Z,2.88
2023-02-19T18:04:52.666Z,2.47
2023-02-19T18:09:53.988Z,2.47
2023-02-19T18:14:56.759Z,3.60
2023-02-19T18:19:59.281Z,2.00
2023-02-19T18:25:00.706Z,3.47
2023-02-19T18:30:02.172Z,2.40
2023-02-19T18:35:03.667Z,2.10
2023-02-19T18:40:05.507Z,2.08
2023-02-19T18:45:07.159Z,2.10
2023-02-19T18:50:09.735Z,2.05
2023-02-19T18:55:11.225Z,2.43
2023-02-19T19:00:16.738Z,2.10
2023-02-19T19:05:21.315Z,2.28
2023-02-19T19:10:23.156Z,2.30
2023-02-19T19:15:24.843Z,2.90
2023-02-19T19:20:26.255Z,4.87
2023-02-19T19:25:27.701Z,2.80
2023-02-19T19:30:29.164Z,2.50
2023-02-19T19:35:30.559Z,2.83
2023-02-19T19:40:31.952Z,2.40
2023-02-19T19:45:33.281Z,2.47
2023-02-19T19:50:34.614Z,2.60
2023-02-19T19:55:35.934Z,3.30
2023-02-19T20:00:37.342Z,3.30
2023-02-19T20:05:38.693Z,2.13
2023-02-19T20:10:40.090Z,2.67
2023-02-19T20:15:41.395Z,2.95
2023-02-19T20:20:42.668Z,2.58
2023-02-19T20:25:44.059Z,2.33
2023-02-19T20:30:45.377Z,2.63
2023-02-19T20:35:46.656Z,2.77
2023-02-19T20:40:47.936Z,2.50
2023-02-19T20:45:49.241Z,2.80
2023-02-19T20:50:50.512Z,2.23
2023-02-19T20:55:51.971Z,6.20
2023-02-19T21:00:54.203Z,2.90
2023-02-19T21:05:55.509Z,2.50
2023-02-19T21:10:56.876Z,3.10
2023-02-19T21:15:58.197Z,2.87
2023-02-19T21:20:59.589Z,5.07
2023-02-19T21:26:04.192Z,3.00
2023-02-19T21:31:05.618Z,2.65
2023-02-19T21:36:07.150Z,2.70
2023-02-19T21:41:08.508Z,3.23
2023-02-19T21:46:09.850Z,2.75
2023-02-19T21:51:11.147Z,2.57
2023-02-19T21:56:21.183Z,2.78
2023-02-19T22:01:27.632Z,2.53
2023-02-19T22:06:29.970Z,2.40
2023-02-19T22:11:31.323Z,2.65
2023-02-19T22:16:32.665Z,3.83
2023-02-19T22:21:34.054Z,3.58
2023-02-19T22:26:36.343Z,2.60
2023-02-19T22:31:37.718Z,2.80
2023-02-19T22:36:40.261Z,2.67
2023-02-19T22:41:42.013Z,2.77
2023-02-19T22:46:51.000Z,2.90
2023-02-19T22:51:55.014Z,2.38
2023-02-19T22:56:56.594Z,2.50
2023-02-19T23:01:57.940Z,2.38
2023-02-19T23:06:59.208Z,2.47
2023-02-19T23:12:05.199Z,2.50
2023-02-19T23:17:06.646Z,2.90
2023-02-19T23:22:07.936Z,2.60
2023-02-19T23:27:09.243Z,2.22
2023-02-19T23:32:10.822Z,2.80
2023-02-19T23:37:12.144Z,2.78
2023-02-19T23:42:21.207Z,2.70
2023-02-19T23:47:22.560Z,2.83
2023-02-19T23:52:23.835Z,2.58
2023-02-19T23:57:25.209Z,2.97
